sensor_id;sensor_type;location;lat;lon;timestamp;P1;durP1;ratioP1;P2;durP2;ratioP2
2956;SDS011;1488;51.548;7.222;2024-01-11T00:00:50;11.00;;;7.17;;
2956;SDS011;1488;51.548;7.222;2024-01-11T00:03:18;7.93;;;7.13;;
2956;SDS011;1488;51.548;7.222;2024-01-11T00:05:45;8.90;;;7.73;;
2956;SDS011;1488;51.548;7.222;2024-01-11T00:08:12;8.70;;;7.80;;
2956;SDS011;1488;51.548;7.222;2024-01-11T00:10:39;9.00;;;8.10;;
2956;SDS011;1488;51.548;7.222;2024-01-11T00:13:06;9.30;;;7.37;;
2956;SDS011;1488;51.548;7.222;2024-01-11T00:15:32;8.27;;;7.47;;
2956;SDS011;1488;51.548;7.222;2024-01-11T00:17:59;8.50;;;7.60;;
2956;SDS011;1488;51.548;7.222;2024-01-11T00:20:28;8.03;;;7.23;;
2956;SDS011;1488;51.548;7.222;2024-01-11T00:22:55;7.93;;;7.20;;
2956;SDS011;1488;51.548;7.222;2024-01-11T00:25:22;8.57;;;7.73;;
2956;SDS011;1488;51.548;7.222;2024-01-11T00:27:49;8.40;;;7.47;;
2956;SDS011;1488;51.548;7.222;2024-01-11T00:30:16;9.20;;;7.07;;
2956;SDS011;1488;51.548;7.222;2024-01-11T00:32:42;9.13;;;8.23;;
2956;SDS011;1488;51.548;7.222;2024-01-11T00:35:09;7.67;;;6.70;;
2956;SDS011;1488;51.548;7.222;2024-01-11T00:37:37;10.70;;;8.40;;
2956;SDS011;1488;51.548;7.222;2024-01-11T00:40:05;8.80;;;7.90;;
2956;SDS011;1488;51.548;7.222;2024-01-11T00:42:33;7.70;;;7.00;;
2956;SDS011;1488;51.548;7.222;2024-01-11T00:45:00;8.40;;;7.50;;
2956;SDS011;1488;51.548;7.222;2024-01-11T00:47:27;8.73;;;7.83;;
2956;SDS011;1488;51.548;7.222;2024-01-11T00:49:54;8.87;;;7.80;;
2956;SDS011;1488;51.548;7.222;2024-01-11T00:52:20;8.90;;;8.00;;
2956;SDS011;1488;51.548;7.222;2024-01-11T00:54:49;7.90;;;7.10;;
2956;SDS011;1488;51.548;7.222;2024-01-11T00:57:15;8.13;;;7.43;;
2956;SDS011;1488;51.548;7.222;2024-01-11T00:59:42;8.37;;;7.50;;
2956;SDS011;1488;51.548;7.222;2024-01-11T01:02:09;8.30;;;7.13;;
2956;SDS011;1488;51.548;7.222;2024-01-11T01:04:37;9.40;;;7.40;;
2956;SDS011;1488;51.548;7.222;2024-01-11T01:07:04;8.33;;;7.53;;
2956;SDS011;1488;51.548;7.222;2024-01-11T01:09:30;9.20;;;7.17;;
2956;SDS011;1488;51.548;7.222;2024-01-11T01:11:59;8.60;;;7.73;;
2956;SDS011;1488;51.548;7.222;2024-01-11T01:14:25;9.83;;;8.00;;
2956;SDS011;1488;51.548;7.222;2024-01-11T01:16:52;8.50;;;7.63;;
2956;SDS011;1488;51.548;7.222;2024-01-11T01:19:19;8.20;;;7.40;;
2956;SDS011;1488;51.548;7.222;2024-01-11T01:21:46;8.60;;;7.90;;
2956;SDS011;1488;51.548;7.222;2024-01-11T01:24:13;9.33;;;8.10;;
2956;SDS011;1488;51.548;7.222;2024-01-11T01:26:39;7.90;;;7.10;;
2956;SDS011;1488;51.548;7.222;2024-01-11T01:29:08;8.53;;;7.70;;
2956;SDS011;1488;51.548;7.222;2024-01-11T01:31:35;10.00;;;7.13;;
2956;SDS011;1488;51.548;7.222;2024-01-11T01:34:02;8.47;;;7.37;;
2956;SDS011;1488;51.548;7.222;2024-01-11T01:36:29;7.33;;;6.63;;
2956;SDS011;1488;51.548;7.222;2024-01-11T01:38:56;8.70;;;7.80;;
2956;SDS011;1488;51.548;7.222;2024-01-11T01:41:23;8.80;;;7.90;;
2956;SDS011;1488;51.548;7.222;2024-01-11T01:43:50;10.00;;;7.70;;
2956;SDS011;1488;51.548;7.222;2024-01-11T01:46:20;9.53;;;7.90;;
2956;SDS011;1488;51.548;7.222;2024-01-11T01:48:49;8.57;;;7.67;;
2956;SDS011;1488;51.548;7.222;2024-01-11T01:51:17;7.70;;;6.93;;
2956;SDS011;1488;51.548;7.222;2024-01-11T01:53:44;7.50;;;6.70;;
2956;SDS011;1488;51.548;7.222;2024-01-11T01:56:10;8.20;;;6.80;;
2956;SDS011;1488;51.548;7.222;2024-01-11T01:58:39;7.73;;;6.97;;
2956;SDS011;1488;51.548;7.222;2024-01-11T02:01:06;9.20;;;8.17;;
2956;SDS011;1488;51.548;7.222;2024-01-11T02:03:35;10.70;;;7.43;;
2956;SDS011;1488;51.548;7.222;2024-01-11T02:06:02;9.40;;;7.97;;
2956;SDS011;1488;51.548;7.222;2024-01-11T02:08:32;7.20;;;6.50;;
2956;SDS011;1488;51.548;7.222;2024-01-11T02:11:00;9.00;;;7.00;;
2956;SDS011;1488;51.548;7.222;2024-01-11T02:13:27;7.90;;;6.97;;
2956;SDS011;1488;51.548;7.222;2024-01-11T02:15:54;7.90;;;7.10;;
2956;SDS011;1488;51.548;7.222;2024-01-11T02:18:21;8.23;;;7.43;;
2956;SDS011;1488;51.548;7.222;2024-01-11T02:20:49;9.70;;;8.33;;
2956;SDS011;1488;51.548;7.222;2024-01-11T02:23:17;8.93;;;8.03;;
2956;SDS011;1488;51.548;7.222;2024-01-11T02:25:46;8.80;;;7.90;;
2956;SDS011;1488;51.548;7.222;2024-01-11T02:28:13;9.20;;;7.97;;
2956;SDS011;1488;51.548;7.222;2024-01-11T02:30:40;8.83;;;7.97;;
2956;SDS011;1488;51.548;7.222;2024-01-11T02:33:07;8.80;;;7.90;;
2956;SDS011;1488;51.548;7.222;2024-01-11T02:35:35;8.77;;;7.93;;
2956;SDS011;1488;51.548;7.222;2024-01-11T02:38:04;7.80;;;7.10;;
2956;SDS011;1488;51.548;7.222;2024-01-11T02:40:32;8.10;;;7.40;;
2956;SDS011;1488;51.548;7.222;2024-01-11T02:43:08;8.63;;;7.80;;
2956;SDS011;1488;51.548;7.222;2024-01-11T02:45:35;7.67;;;6.97;;
2956;SDS011;1488;51.548;7.222;2024-01-11T02:48:02;8.37;;;7.40;;
2956;SDS011;1488;51.548;7.222;2024-01-11T02:50:29;10.30;;;7.80;;
2956;SDS011;1488;51.548;7.222;2024-01-11T02:52:56;9.20;;;7.93;;
2956;SDS011;1488;51.548;7.222;2024-01-11T02:55:23;7.70;;;7.00;;
2956;SDS011;1488;51.548;7.222;2024-01-11T02:57:50;8.10;;;7.30;;
2956;SDS011;1488;51.548;7.222;2024-01-11T03:00:18;8.27;;;7.40;;
2956;SDS011;1488;51.548;7.222;2024-01-11T03:02:45;9.77;;;7.87;;
2956;SDS011;1488;51.548;7.222;2024-01-11T03:05:12;8.13;;;7.33;;
2956;SDS011;1488;51.548;7.222;2024-01-11T03:07:39;7.93;;;7.13;;
2956;SDS011;1488;51.548;7.222;2024-01-11T03:10:06;9.43;;;7.10;;
2956;SDS011;1488;51.548;7.222;2024-01-11T03:12:33;7.53;;;6.83;;
2956;SDS011;1488;51.548;7.222;2024-01-11T03:15:01;8.50;;;7.60;;
2956;SDS011;1488;51.548;7.222;2024-01-11T03:17:29;8.70;;;7.80;;
2956;SDS011;1488;51.548;7.222;2024-01-11T03:19:56;9.63;;;8.57;;
2956;SDS011;1488;51.548;7.222;2024-01-11T03:22:23;8.57;;;7.67;;
2956;SDS011;1488;51.548;7.222;2024-01-11T03:24:49;9.17;;;8.03;;
2956;SDS011;1488;51.548;7.222;2024-01-11T03:27:16;7.30;;;6.63;;
2956;SDS011;1488;51.548;7.222;2024-01-11T03:29:43;8.43;;;7.63;;
2956;SDS011;1488;51.548;7.222;2024-01-11T03:32:10;8.80;;;7.93;;
2956;SDS011;1488;51.548;7.222;2024-01-11T03:34:40;9.47;;;7.60;;
2956;SDS011;1488;51.548;7.222;2024-01-11T03:37:07;9.10;;;7.77;;
2956;SDS011;1488;51.548;7.222;2024-01-11T03:42:13;7.70;;;6.93;;
2956;SDS011;1488;51.548;7.222;2024-01-11T03:44:40;8.87;;;7.93;;
2956;SDS011;1488;51.548;7.222;2024-01-11T03:47:07;8.87;;;7.50;;
2956;SDS011;1488;51.548;7.222;2024-01-11T03:49:34;8.40;;;7.57;;
2956;SDS011;1488;51.548;7.222;2024-01-11T03:52:02;8.07;;;7.37;;
2956;SDS011;1488;51.548;7.222;2024-01-11T03:54:29;8.50;;;7.53;;
2956;SDS011;1488;51.548;7.222;2024-01-11T03:56:56;9.17;;;6.80;;
2956;SDS011;1488;51.548;7.222;2024-01-11T03:59:23;8.47;;;7.60;;
2956;SDS011;1488;51.548;7.222;2024-01-11T04:01:50;9.80;;;7.87;;
2956;SDS011;1488;51.548;7.222;2024-01-11T04:04:17;8.10;;;7.30;;
2956;SDS011;1488;51.548;7.222;2024-01-11T04:06:45;8.90;;;7.50;;
2956;SDS011;1488;51.548;7.222;2024-01-11T04:09:13;8.30;;;7.50;;
2956;SDS011;1488;51.548;7.222;2024-01-11T04:11:40;8.00;;;7.20;;
2956;SDS011;1488;51.548;7.222;2024-01-11T04:14:06;7.80;;;7.10;;
2956;SDS011;1488;51.548;7.222;2024-01-11T04:16:33;8.00;;;7.30;;
2956;SDS011;1488;51.548;7.222;2024-01-11T04:19:05;7.90;;;7.10;;
2956;SDS011;1488;51.548;7.222;2024-01-11T04:21:32;7.90;;;7.13;;
2956;SDS011;1488;51.548;7.222;2024-01-11T04:23:59;8.50;;;7.50;;
2956;SDS011;1488;51.548;7.222;2024-01-11T04:26:27;8.53;;;7.73;;
2956;SDS011;1488;51.548;7.222;2024-01-11T04:28:54;7.57;;;6.87;;
2956;SDS011;1488;51.548;7.222;2024-01-11T04:31:23;8.17;;;7.33;;
2956;SDS011;1488;51.548;7.222;2024-01-11T04:33:50;8.47;;;7.70;;
2956;SDS011;1488;51.548;7.222;2024-01-11T04:36:16;8.37;;;7.57;;
2956;SDS011;1488;51.548;7.222;2024-01-11T04:38:43;9.97;;;7.93;;
2956;SDS011;1488;51.548;7.222;2024-01-11T04:41:11;8.73;;;7.40;;
2956;SDS011;1488;51.548;7.222;2024-01-11T04:43:39;8.07;;;7.27;;
2956;SDS011;1488;51.548;7.222;2024-01-11T04:46:12;7.87;;;7.07;;
2956;SDS011;1488;51.548;7.222;2024-01-11T04:48:40;7.83;;;6.63;;
2956;SDS011;1488;51.548;7.222;2024-01-11T04:51:07;8.07;;;7.27;;
2956;SDS011;1488;51.548;7.222;2024-01-11T04:53:35;7.80;;;6.93;;
2956;SDS011;1488;51.548;7.222;2024-01-11T04:56:03;8.30;;;7.50;;
2956;SDS011;1488;51.548;7.222;2024-01-11T04:58:30;8.33;;;7.30;;
2956;SDS011;1488;51.548;7.222;2024-01-11T05:00:58;8.83;;;7.80;;
2956;SDS011;1488;51.548;7.222;2024-01-11T05:03:25;8.43;;;7.53;;
2956;SDS011;1488;51.548;7.222;2024-01-11T05:05:51;9.10;;;7.77;;
2956;SDS011;1488;51.548;7.222;2024-01-11T05:08:18;8.83;;;7.57;;
2956;SDS011;1488;51.548;7.222;2024-01-11T05:10:45;8.90;;;7.03;;
2956;SDS011;1488;51.548;7.222;2024-01-11T05:13:12;8.57;;;7.67;;
2956;SDS011;1488;51.548;7.222;2024-01-11T05:15:39;7.77;;;6.97;;
2956;SDS011;1488;51.548;7.222;2024-01-11T05:18:07;8.77;;;7.57;;
2956;SDS011;1488;51.548;7.222;2024-01-11T05:20:34;7.90;;;7.10;;
2956;SDS011;1488;51.548;7.222;2024-01-11T05:23:00;8.97;;;7.97;;
2956;SDS011;1488;51.548;7.222;2024-01-11T05:25:27;8.90;;;7.50;;
2956;SDS011;1488;51.548;7.222;2024-01-11T05:27:58;10.87;;;8.37;;
2956;SDS011;1488;51.548;7.222;2024-01-11T05:30:25;8.80;;;7.80;;
2956;SDS011;1488;51.548;7.222;2024-01-11T05:32:52;9.50;;;7.60;;
2956;SDS011;1488;51.548;7.222;2024-01-11T05:35:20;8.23;;;7.43;;
2956;SDS011;1488;51.548;7.222;2024-01-11T05:37:49;9.20;;;7.47;;
2956;SDS011;1488;51.548;7.222;2024-01-11T05:40:16;8.40;;;7.60;;
2956;SDS011;1488;51.548;7.222;2024-01-11T05:42:43;8.90;;;8.00;;
2956;SDS011;1488;51.548;7.222;2024-01-11T05:45:09;8.70;;;7.83;;
2956;SDS011;1488;51.548;7.222;2024-01-11T05:47:36;8.70;;;7.43;;
2956;SDS011;1488;51.548;7.222;2024-01-11T05:50:03;8.37;;;7.60;;
2956;SDS011;1488;51.548;7.222;2024-01-11T05:52:32;9.30;;;7.80;;
2956;SDS011;1488;51.548;7.222;2024-01-11T05:54:59;8.73;;;7.80;;
2956;SDS011;1488;51.548;7.222;2024-01-11T05:57:26;7.93;;;7.13;;
2956;SDS011;1488;51.548;7.222;2024-01-11T05:59:52;8.30;;;7.27;;
2956;SDS011;1488;51.548;7.222;2024-01-11T06:02:23;8.30;;;7.17;;
2956;SDS011;1488;51.548;7.222;2024-01-11T06:04:49;7.70;;;6.90;;
2956;SDS011;1488;51.548;7.222;2024-01-11T06:07:16;8.63;;;7.43;;
2956;SDS011;1488;51.548;7.222;2024-01-11T06:09:44;8.87;;;7.60;;
2956;SDS011;1488;51.548;7.222;2024-01-11T06:12:11;8.90;;;8.00;;
2956;SDS011;1488;51.548;7.222;2024-01-11T06:14:39;8.90;;;7.80;;
2956;SDS011;1488;51.548;7.222;2024-01-11T06:17:05;8.40;;;7.37;;
2956;SDS011;1488;51.548;7.222;2024-01-11T06:19:35;9.40;;;8.40;;
2956;SDS011;1488;51.548;7.222;2024-01-11T06:22:03;8.67;;;7.77;;
2956;SDS011;1488;51.548;7.222;2024-01-11T06:24:30;8.20;;;7.40;;
2956;SDS011;1488;51.548;7.222;2024-01-11T06:26:58;8.90;;;8.00;;
2956;SDS011;1488;51.548;7.222;2024-01-11T06:29:25;9.77;;;8.77;;
2956;SDS011;1488;51.548;7.222;2024-01-11T06:31:51;8.33;;;7.40;;
2956;SDS011;1488;51.548;7.222;2024-01-11T06:34:18;9.70;;;8.70;;
2956;SDS011;1488;51.548;7.222;2024-01-11T06:36:46;9.13;;;8.23;;
2956;SDS011;1488;51.548;7.222;2024-01-11T06:39:26;9.43;;;8.18;;
2956;SDS011;1488;51.548;7.222;2024-01-11T06:41:53;9.77;;;8.17;;
2956;SDS011;1488;51.548;7.222;2024-01-11T06:44:21;8.33;;;7.53;;
2956;SDS011;1488;51.548;7.222;2024-01-11T06:46:48;10.37;;;7.47;;
2956;SDS011;1488;51.548;7.222;2024-01-11T06:49:16;7.77;;;7.00;;
2956;SDS011;1488;51.548;7.222;2024-01-11T06:51:43;10.10;;;7.80;;
2956;SDS011;1488;51.548;7.222;2024-01-11T06:54:10;8.77;;;7.90;;
2956;SDS011;1488;51.548;7.222;2024-01-11T06:56:36;10.03;;;7.80;;
2956;SDS011;1488;51.548;7.222;2024-01-11T06:59:03;10.97;;;9.17;;
2956;SDS011;1488;51.548;7.222;2024-01-11T07:01:33;11.27;;;9.43;;
2956;SDS011;1488;51.548;7.222;2024-01-11T07:04:00;8.73;;;7.83;;
2956;SDS011;1488;51.548;7.222;2024-01-11T07:06:27;8.87;;;7.97;;
2956;SDS011;1488;51.548;7.222;2024-01-11T07:08:54;9.70;;;8.70;;
2956;SDS011;1488;51.548;7.222;2024-01-11T07:11:20;10.50;;;9.43;;
2956;SDS011;1488;51.548;7.222;2024-01-11T07:13:48;11.20;;;9.77;;
2956;SDS011;1488;51.548;7.222;2024-01-11T07:16:14;10.27;;;9.10;;
2956;SDS011;1488;51.548;7.222;2024-01-11T07:18:43;10.40;;;9.30;;
2956;SDS011;1488;51.548;7.222;2024-01-11T07:21:10;10.70;;;9.60;;
2956;SDS011;1488;51.548;7.222;2024-01-11T07:23:36;13.23;;;9.70;;
2956;SDS011;1488;51.548;7.222;2024-01-11T07:26:03;10.43;;;9.17;;
2956;SDS011;1488;51.548;7.222;2024-01-11T07:28:30;11.37;;;10.20;;
2956;SDS011;1488;51.548;7.222;2024-01-11T07:30:57;11.60;;;10.50;;
2956;SDS011;1488;51.548;7.222;2024-01-11T07:33:24;10.63;;;9.30;;
2956;SDS011;1488;51.548;7.222;2024-01-11T07:35:52;10.20;;;8.83;;
2956;SDS011;1488;51.548;7.222;2024-01-11T07:38:20;11.70;;;10.23;;
2956;SDS011;1488;51.548;7.222;2024-01-11T07:40:47;11.60;;;9.93;;
2956;SDS011;1488;51.548;7.222;2024-01-11T07:43:14;11.30;;;10.10;;
2956;SDS011;1488;51.548;7.222;2024-01-11T07:45:41;10.20;;;9.20;;
2956;SDS011;1488;51.548;7.222;2024-01-11T07:48:08;11.97;;;10.10;;
2956;SDS011;1488;51.548;7.222;2024-01-11T07:50:34;12.23;;;10.90;;
2956;SDS011;1488;51.548;7.222;2024-01-11T07:53:03;10.33;;;9.37;;
2956;SDS011;1488;51.548;7.222;2024-01-11T07:55:31;10.57;;;9.20;;
2956;SDS011;1488;51.548;7.222;2024-01-11T07:57:58;9.63;;;8.73;;
2956;SDS011;1488;51.548;7.222;2024-01-11T08:00:25;11.67;;;9.30;;
2956;SDS011;1488;51.548;7.222;2024-01-11T08:02:53;11.57;;;9.37;;
2956;SDS011;1488;51.548;7.222;2024-01-11T08:05:20;10.90;;;9.80;;
2956;SDS011;1488;51.548;7.222;2024-01-11T08:07:47;9.50;;;8.67;;
2956;SDS011;1488;51.548;7.222;2024-01-11T08:10:16;11.70;;;10.23;;
2956;SDS011;1488;51.548;7.222;2024-01-11T08:12:43;11.40;;;9.73;;
2956;SDS011;1488;51.548;7.222;2024-01-11T08:15:10;14.23;;;10.40;;
2956;SDS011;1488;51.548;7.222;2024-01-11T08:17:37;12.00;;;10.70;;
2956;SDS011;1488;51.548;7.222;2024-01-11T08:20:04;11.93;;;9.80;;
2956;SDS011;1488;51.548;7.222;2024-01-11T08:22:33;9.80;;;8.77;;
2956;SDS011;1488;51.548;7.222;2024-01-11T08:25:01;11.17;;;9.40;;
2956;SDS011;1488;51.548;7.222;2024-01-11T08:27:31;9.50;;;8.50;;
2956;SDS011;1488;51.548;7.222;2024-01-11T08:29:57;12.60;;;9.80;;
2956;SDS011;1488;51.548;7.222;2024-01-11T08:32:25;10.40;;;8.40;;
2956;SDS011;1488;51.548;7.222;2024-01-11T08:34:52;9.80;;;8.50;;
2956;SDS011;1488;51.548;7.222;2024-01-11T08:37:19;9.53;;;8.60;;
2956;SDS011;1488;51.548;7.222;2024-01-11T08:39:46;10.90;;;9.27;;
2956;SDS011;1488;51.548;7.222;2024-01-11T08:42:13;11.97;;;9.60;;
2956;SDS011;1488;51.548;7.222;2024-01-11T08:44:42;10.67;;;9.50;;
2956;SDS011;1488;51.548;7.222;2024-01-11T08:47:09;10.07;;;9.13;;
2956;SDS011;1488;51.548;7.222;2024-01-11T08:49:36;10.87;;;9.63;;
2956;SDS011;1488;51.548;7.222;2024-01-11T08:52:03;9.30;;;8.40;;
2956;SDS011;1488;51.548;7.222;2024-01-11T08:54:30;9.60;;;8.60;;
2956;SDS011;1488;51.548;7.222;2024-01-11T08:56:58;10.60;;;9.03;;
2956;SDS011;1488;51.548;7.222;2024-01-11T08:59:25;10.57;;;8.97;;
2956;SDS011;1488;51.548;7.222;2024-01-11T09:01:53;13.30;;;9.10;;
2956;SDS011;1488;51.548;7.222;2024-01-11T09:04:20;11.60;;;8.80;;
2956;SDS011;1488;51.548;7.222;2024-01-11T09:06:47;11.80;;;9.07;;
2956;SDS011;1488;51.548;7.222;2024-01-11T09:09:14;10.67;;;9.00;;
2956;SDS011;1488;51.548;7.222;2024-01-11T09:11:42;11.30;;;9.13;;
2956;SDS011;1488;51.548;7.222;2024-01-11T09:14:08;9.10;;;8.20;;
2956;SDS011;1488;51.548;7.222;2024-01-11T09:16:36;10.17;;;9.03;;
2956;SDS011;1488;51.548;7.222;2024-01-11T09:19:06;9.93;;;8.50;;
2956;SDS011;1488;51.548;7.222;2024-01-11T09:21:32;11.73;;;8.17;;
2956;SDS011;1488;51.548;7.222;2024-01-11T09:23:59;10.73;;;9.73;;
2956;SDS011;1488;51.548;7.222;2024-01-11T09:26:26;12.73;;;10.30;;
2956;SDS011;1488;51.548;7.222;2024-01-11T09:28:53;9.93;;;8.90;;
2956;SDS011;1488;51.548;7.222;2024-01-11T09:31:20;12.03;;;9.87;;
2956;SDS011;1488;51.548;7.222;2024-01-11T09:33:46;10.17;;;9.13;;
2956;SDS011;1488;51.548;7.222;2024-01-11T09:36:16;11.00;;;9.10;;
2956;SDS011;1488;51.548;7.222;2024-01-11T09:38:43;10.07;;;8.90;;
2956;SDS011;1488;51.548;7.222;2024-01-11T09:41:10;14.23;;;8.57;;
2956;SDS011;1488;51.548;7.222;2024-01-11T09:43:38;9.73;;;8.33;;
2956;SDS011;1488;51.548;7.222;2024-01-11T09:46:07;9.97;;;8.90;;
2956;SDS011;1488;51.548;7.222;2024-01-11T09:48:37;10.57;;;9.47;;
2956;SDS011;1488;51.548;7.222;2024-01-11T09:51:05;10.40;;;8.70;;
2956;SDS011;1488;51.548;7.222;2024-01-11T09:53:37;10.57;;;8.97;;
2956;SDS011;1488;51.548;7.222;2024-01-11T09:56:05;11.57;;;9.53;;
2956;SDS011;1488;51.548;7.222;2024-01-11T09:58:35;9.60;;;8.63;;
2956;SDS011;1488;51.548;7.222;2024-01-11T10:01:02;9.47;;;8.37;;
2956;SDS011;1488;51.548;7.222;2024-01-11T10:03:32;9.57;;;8.57;;
2956;SDS011;1488;51.548;7.222;2024-01-11T10:05:59;11.23;;;8.43;;
2956;SDS011;1488;51.548;7.222;2024-01-11T10:08:27;9.83;;;8.83;;
2956;SDS011;1488;51.548;7.222;2024-01-11T10:10:57;10.13;;;9.13;;
2956;SDS011;1488;51.548;7.222;2024-01-11T10:13:26;9.17;;;8.23;;
2956;SDS011;1488;51.548;7.222;2024-01-11T10:16:04;8.60;;;7.77;;
2956;SDS011;1488;51.548;7.222;2024-01-11T10:18:32;9.80;;;8.80;;
2956;SDS011;1488;51.548;7.222;2024-01-11T10:20:59;8.97;;;8.07;;
2956;SDS011;1488;51.548;7.222;2024-01-11T10:23:26;10.17;;;9.17;;
2956;SDS011;1488;51.548;7.222;2024-01-11T10:25:54;9.70;;;8.33;;
2956;SDS011;1488;51.548;7.222;2024-01-11T10:28:23;8.97;;;8.17;;
2956;SDS011;1488;51.548;7.222;2024-01-11T10:30:51;9.97;;;8.97;;
2956;SDS011;1488;51.548;7.222;2024-01-11T10:33:19;8.80;;;7.90;;
2956;SDS011;1488;51.548;7.222;2024-01-11T10:35:47;9.50;;;8.50;;
2956;SDS011;1488;51.548;7.222;2024-01-11T10:38:15;9.07;;;8.20;;
2956;SDS011;1488;51.548;7.222;2024-01-11T10:40:42;10.13;;;8.90;;
2956;SDS011;1488;51.548;7.222;2024-01-11T10:43:11;9.43;;;8.50;;
2956;SDS011;1488;51.548;7.222;2024-01-11T10:45:38;9.27;;;8.33;;
2956;SDS011;1488;51.548;7.222;2024-01-11T10:48:06;9.40;;;8.10;;
2956;SDS011;1488;51.548;7.222;2024-01-11T10:50:38;8.23;;;7.33;;
2956;SDS011;1488;51.548;7.222;2024-01-11T10:53:12;8.83;;;8.03;;
2956;SDS011;1488;51.548;7.222;2024-01-11T10:55:43;9.20;;;8.30;;
2956;SDS011;1488;51.548;7.222;2024-01-11T10:58:12;9.27;;;8.27;;
2956;SDS011;1488;51.548;7.222;2024-01-11T11:00:40;8.60;;;7.40;;
2956;SDS011;1488;51.548;7.222;2024-01-11T11:03:06;8.00;;;7.20;;
2956;SDS011;1488;51.548;7.222;2024-01-11T11:05:35;10.37;;;8.07;;
2956;SDS011;1488;51.548;7.222;2024-01-11T11:08:02;8.80;;;7.90;;
2956;SDS011;1488;51.548;7.222;2024-01-11T11:10:32;9.83;;;8.80;;
2956;SDS011;1488;51.548;7.222;2024-01-11T11:13:00;8.90;;;8.07;;
2956;SDS011;1488;51.548;7.222;2024-01-11T11:15:28;9.27;;;8.37;;
2956;SDS011;1488;51.548;7.222;2024-01-11T11:17:55;8.40;;;7.47;;
2956;SDS011;1488;51.548;7.222;2024-01-11T11:20:23;9.50;;;8.20;;
2956;SDS011;1488;51.548;7.222;2024-01-11T11:23:02;8.70;;;7.87;;
2956;SDS011;1488;51.548;7.222;2024-01-11T11:25:29;8.47;;;7.67;;
2956;SDS011;1488;51.548;7.222;2024-01-11T11:27:57;9.33;;;8.33;;
2956;SDS011;1488;51.548;7.222;2024-01-11T11:30:26;8.33;;;7.60;;
2956;SDS011;1488;51.548;7.222;2024-01-11T11:32:54;10.23;;;8.80;;
2956;SDS011;1488;51.548;7.222;2024-01-11T11:35:22;8.77;;;7.73;;
2956;SDS011;1488;51.548;7.222;2024-01-11T11:37:53;8.77;;;7.90;;
2956;SDS011;1488;51.548;7.222;2024-01-11T11:40:21;8.07;;;7.37;;
2956;SDS011;1488;51.548;7.222;2024-01-11T11:42:48;9.67;;;7.90;;
2956;SDS011;1488;51.548;7.222;2024-01-11T11:45:23;8.30;;;7.50;;
2956;SDS011;1488;51.548;7.222;2024-01-11T11:47:51;8.77;;;7.90;;
2956;SDS011;1488;51.548;7.222;2024-01-11T11:50:22;9.10;;;8.20;;
2956;SDS011;1488;51.548;7.222;2024-01-11T11:52:53;7.77;;;7.03;;
2956;SDS011;1488;51.548;7.222;2024-01-11T11:55:21;8.10;;;7.40;;
2956;SDS011;1488;51.548;7.222;2024-01-11T11:57:49;9.20;;;7.00;;
2956;SDS011;1488;51.548;7.222;2024-01-11T12:00:17;8.60;;;7.80;;
2956;SDS011;1488;51.548;7.222;2024-01-11T12:02:43;8.53;;;7.60;;
2956;SDS011;1488;51.548;7.222;2024-01-11T12:05:12;7.93;;;7.13;;
2956;SDS011;1488;51.548;7.222;2024-01-11T12:07:40;8.10;;;7.30;;
2956;SDS011;1488;51.548;7.222;2024-01-11T12:10:07;8.13;;;7.20;;
2956;SDS011;1488;51.548;7.222;2024-01-11T12:12:34;10.73;;;8.03;;
2956;SDS011;1488;51.548;7.222;2024-01-11T12:15:03;8.17;;;7.40;;
2956;SDS011;1488;51.548;7.222;2024-01-11T12:17:30;8.17;;;7.40;;
2956;SDS011;1488;51.548;7.222;2024-01-11T12:19:57;8.07;;;7.27;;
2956;SDS011;1488;51.548;7.222;2024-01-11T12:22:24;8.33;;;7.47;;
2956;SDS011;1488;51.548;7.222;2024-01-11T12:24:52;8.00;;;7.20;;
2956;SDS011;1488;51.548;7.222;2024-01-11T12:27:19;8.27;;;7.50;;
2956;SDS011;1488;51.548;7.222;2024-01-11T12:29:46;8.10;;;7.40;;
2956;SDS011;1488;51.548;7.222;2024-01-11T12:32:14;7.67;;;6.97;;
2956;SDS011;1488;51.548;7.222;2024-01-11T12:34:42;8.70;;;7.80;;
2956;SDS011;1488;51.548;7.222;2024-01-11T12:37:10;7.40;;;6.70;;
2956;SDS011;1488;51.548;7.222;2024-01-11T12:39:37;8.63;;;7.80;;
2956;SDS011;1488;51.548;7.222;2024-01-11T12:42:06;8.00;;;7.23;;
2956;SDS011;1488;51.548;7.222;2024-01-11T12:44:34;9.00;;;8.10;;
2956;SDS011;1488;51.548;7.222;2024-01-11T12:47:02;7.90;;;7.20;;
2956;SDS011;1488;51.548;7.222;2024-01-11T12:49:31;7.73;;;6.70;;
2956;SDS011;1488;51.548;7.222;2024-01-11T12:51:57;8.43;;;7.63;;
2956;SDS011;1488;51.548;7.222;2024-01-11T12:54:24;7.53;;;6.77;;
2956;SDS011;1488;51.548;7.222;2024-01-11T12:56:51;8.90;;;7.80;;
2956;SDS011;1488;51.548;7.222;2024-01-11T12:59:20;7.50;;;6.80;;
2956;SDS011;1488;51.548;7.222;2024-01-11T13:01:51;7.17;;;6.57;;
2956;SDS011;1488;51.548;7.222;2024-01-11T13:04:19;7.17;;;6.47;;
2956;SDS011;1488;51.548;7.222;2024-01-11T13:06:46;7.73;;;6.63;;
2956;SDS011;1488;51.548;7.222;2024-01-11T13:09:13;7.80;;;7.10;;
2956;SDS011;1488;51.548;7.222;2024-01-11T13:11:40;7.30;;;6.60;;
2956;SDS011;1488;51.548;7.222;2024-01-11T13:14:07;7.30;;;6.60;;
2956;SDS011;1488;51.548;7.222;2024-01-11T13:16:40;7.33;;;6.63;;
2956;SDS011;1488;51.548;7.222;2024-01-11T13:19:08;7.90;;;7.10;;
2956;SDS011;1488;51.548;7.222;2024-01-11T13:21:36;9.33;;;7.50;;
2956;SDS011;1488;51.548;7.222;2024-01-11T13:24:03;7.17;;;6.53;;
2956;SDS011;1488;51.548;7.222;2024-01-11T13:26:30;8.23;;;6.90;;
2956;SDS011;1488;51.548;7.222;2024-01-11T13:28:57;7.40;;;6.67;;
2956;SDS011;1488;51.548;7.222;2024-01-11T13:31:24;7.30;;;6.60;;
2956;SDS011;1488;51.548;7.222;2024-01-11T13:33:52;8.07;;;7.17;;
2956;SDS011;1488;51.548;7.222;2024-01-11T13:36:20;7.20;;;6.50;;
2956;SDS011;1488;51.548;7.222;2024-01-11T13:38:47;7.80;;;6.37;;
2956;SDS011;1488;51.548;7.222;2024-01-11T13:41:14;7.00;;;6.30;;
2956;SDS011;1488;51.548;7.222;2024-01-11T13:43:42;6.93;;;6.27;;
2956;SDS011;1488;51.548;7.222;2024-01-11T13:46:09;6.23;;;5.63;;
2956;SDS011;1488;51.548;7.222;2024-01-11T13:48:37;6.93;;;6.30;;
2956;SDS011;1488;51.548;7.222;2024-01-11T13:51:06;6.53;;;5.90;;
2956;SDS011;1488;51.548;7.222;2024-01-11T13:53:34;6.80;;;6.20;;
2956;SDS011;1488;51.548;7.222;2024-01-11T13:56:01;7.17;;;6.47;;
2956;SDS011;1488;51.548;7.222;2024-01-11T13:58:27;6.77;;;6.07;;
2956;SDS011;1488;51.548;7.222;2024-01-11T14:00:54;6.17;;;5.60;;
2956;SDS011;1488;51.548;7.222;2024-01-11T14:03:21;8.10;;;7.30;;
2956;SDS011;1488;51.548;7.222;2024-01-11T14:05:48;6.47;;;5.87;;
2956;SDS011;1488;51.548;7.222;2024-01-11T14:08:16;6.93;;;6.27;;
2956;SDS011;1488;51.548;7.222;2024-01-11T14:10:43;6.90;;;6.20;;
2956;SDS011;1488;51.548;7.222;2024-01-11T14:13:10;6.63;;;6.03;;
2956;SDS011;1488;51.548;7.222;2024-01-11T14:15:37;6.20;;;5.70;;
2956;SDS011;1488;51.548;7.222;2024-01-11T14:18:05;9.70;;;5.70;;
2956;SDS011;1488;51.548;7.222;2024-01-11T14:20:33;6.20;;;5.60;;
2956;SDS011;1488;51.548;7.222;2024-01-11T14:23:00;6.40;;;5.80;;
2956;SDS011;1488;51.548;7.222;2024-01-11T14:25:28;6.47;;;5.87;;
2956;SDS011;1488;51.548;7.222;2024-01-11T14:27:55;7.33;;;6.30;;
2956;SDS011;1488;51.548;7.222;2024-01-11T14:30:22;6.80;;;6.20;;
2956;SDS011;1488;51.548;7.222;2024-01-11T14:32:49;6.17;;;5.57;;
2956;SDS011;1488;51.548;7.222;2024-01-11T14:35:16;6.23;;;5.63;;
2956;SDS011;1488;51.548;7.222;2024-01-11T14:37:43;6.70;;;6.10;;
2956;SDS011;1488;51.548;7.222;2024-01-11T14:40:10;6.70;;;5.67;;
2956;SDS011;1488;51.548;7.222;2024-01-11T14:42:38;6.83;;;6.07;;
2956;SDS011;1488;51.548;7.222;2024-01-11T14:45:06;6.07;;;5.53;;
2956;SDS011;1488;51.548;7.222;2024-01-11T14:47:34;7.67;;;5.50;;
2956;SDS011;1488;51.548;7.222;2024-01-11T14:50:00;6.30;;;5.70;;
2956;SDS011;1488;51.548;7.222;2024-01-11T14:52:28;6.60;;;5.30;;
2956;SDS011;1488;51.548;7.222;2024-01-11T14:54:56;6.37;;;5.17;;
2956;SDS011;1488;51.548;7.222;2024-01-11T14:57:23;6.03;;;5.43;;
2956;SDS011;1488;51.548;7.222;2024-01-11T14:59:51;5.37;;;4.87;;
2956;SDS011;1488;51.548;7.222;2024-01-11T15:02:19;5.30;;;4.80;;
2956;SDS011;1488;51.548;7.222;2024-01-11T15:04:46;5.13;;;4.70;;
2956;SDS011;1488;51.548;7.222;2024-01-11T15:07:13;5.63;;;5.13;;
2956;SDS011;1488;51.548;7.222;2024-01-11T15:09:40;5.80;;;5.20;;
2956;SDS011;1488;51.548;7.222;2024-01-11T15:12:07;4.93;;;4.43;;
2956;SDS011;1488;51.548;7.222;2024-01-11T15:14:34;5.30;;;4.80;;
2956;SDS011;1488;51.548;7.222;2024-01-11T15:17:02;6.00;;;5.40;;